Terminal Aerodrome Forecast
Issued by NWS

Home | Current Version | Previous Version | Graphics & Text | Print | Product List | Glossary On
Versions: 1 2 3 4 5 6 7 8 9 10 11 12 13 14 15 16 17 18 19
000
FTUS43 KOAX 040526
TAFCDR
TAF
KCDR 040526Z 0406/0506 19007KT P6SM FEW100
     FM042300 15008KT P6SM VCTS FEW050CB=

USA.gov is the U.S. government's official web portal to all federal, state and local government web resources and services.